EPWR/WRO METAR and TAF weather

Enter ICAO airport designator
Station Type Date Time Source
EPWR METAR 2019/10/16 20:00 UTC NOAA

EPWR 162000Z 20007KT CAVOK 12/06 Q1015


Station Type Date Time Source
EPWR Decoded METAR 2019/10/16 20:00 UTC NOAA

Wroclaw Ii, Poland (EPWR) 51-06N 016-53E 121M
Oct 16, 2019 - 04:00 PM EDT / 2019.10.16 2000 UTC
Wind: from the SSW (200 degrees) at 8 MPH (7 KT):0
Visibility: greater than 7 mile(s):0
Temperature: 53 F (12 C)
Dew Point: 42 F (6 C)
Relative Humidity: 66%
Pressure (altimeter): 29.97 in. Hg (1015 hPa)
ob: EPWR 162000Z 20007KT CAVOK 12/06 Q1015
cycle: 20

Station Type Date Time Source
EPWR TAF 2019/10/16 21:00 UTC NOAA

TAF EPWR 162030Z 1621/1721 20006KT CAVOK

Example: see airport list